Time;durP1;ratioP1;P1;durP2;ratioP2;P2;SDS_P1;SDS_P2;PMS_P1;PMS_P2;Temp;Humidity;BMP_temperature;BMP_pressure;BME280_temperature;BME280_humidity;BME280_pressure;Samples;Min_cycle;Max_cycle;Signal;HPM_P1;HPM_P2
2023/08/10 00:01:23;;;;;;;5.03;3.67;;;22.50;99.90;;;;;;5270725;28;20034;-75
2023/08/10 00:03:54;;;;;;;4.15;3.28;;;22.40;99.90;;;;;;5270839;28;20028;-89
2023/08/10 00:06:25;;;;;;;4.43;4.00;;;22.40;99.90;;;;;;5270895;28;20456;-76
2023/08/10 00:08:56;;;;;;;3.65;3.20;;;22.40;99.90;;;;;;5270683;28;20364;-88
2023/08/10 00:11:27;;;;;;;4.95;3.63;;;22.30;99.90;;;;;;5269274;28;20402;-88
2023/08/10 00:13:58;;;;;;;6.15;3.63;;;22.30;99.90;;;;;;5270466;28;20016;-77
2023/08/10 00:16:29;;;;;;;5.15;3.38;;;22.40;99.90;;;;;;5270440;28;20071;-76
2023/08/10 00:19:00;;;;;;;6.03;3.33;;;22.30;99.90;;;;;;5270386;28;20050;-88
2023/08/10 00:21:31;;;;;;;4.90;3.75;;;22.30;99.90;;;;;;5270371;28;20110;-76
2023/08/10 00:24:03;;;;;;;3.80;3.42;;;22.30;99.90;;;;;;5270470;28;20103;-76
2023/08/10 00:26:34;;;;;;;5.97;3.33;;;22.30;99.90;;;;;;5270255;28;20016;-76
2023/08/10 00:29:04;;;;;;;4.20;3.45;;;22.20;99.90;;;;;;5270363;28;20518;-76
2023/08/10 00:31:35;;;;;;;4.45;3.70;;;22.20;99.90;;;;;;5270218;28;20035;-80
2023/08/10 00:34:06;;;;;;;4.35;3.60;;;22.20;99.90;;;;;;5270110;28;20020;-86
2023/08/10 00:36:37;;;;;;;13.35;4.57;;;22.20;99.90;;;;;;5270008;28;20036;-82
2023/08/10 00:39:08;;;;;;;5.18;4.63;;;22.10;99.90;;;;;;5270200;28;20027;-76
2023/08/10 00:41:39;;;;;;;4.60;4.18;;;22.20;99.90;;;;;;5269847;28;20034;-76
2023/08/10 00:44:10;;;;;;;4.90;3.67;;;22.20;99.90;;;;;;5269887;28;20048;-83
2023/08/10 00:46:41;;;;;;;6.75;5.30;;;22.10;99.90;;;;;;5269766;28;20055;-80
2023/08/10 00:49:12;;;;;;;4.78;4.35;;;22.10;99.90;;;;;;5269893;28;20031;-78
2023/08/10 00:51:43;;;;;;;6.57;4.50;;;22.10;99.90;;;;;;5269739;28;20028;-76
2023/08/10 00:54:14;;;;;;;5.97;3.58;;;22.20;99.90;;;;;;5270342;28;20043;-87
2023/08/10 00:56:45;;;;;;;4.57;4.10;;;22.00;99.90;;;;;;5269406;28;20036;-82
2023/08/10 00:59:16;;;;;;;4.75;3.65;;;22.10;99.90;;;;;;5268331;28;20031;-76
2023/08/10 01:01:48;;;;;;;8.70;4.13;;;22.10;99.90;;;;;;5269533;28;20728;-77
2023/08/10 01:04:18;;;;;;;5.22;3.72;;;22.00;99.90;;;;;;5268479;28;20130;-78
2023/08/10 01:06:58;;;;;;;5.68;3.40;;;22.10;99.90;;;;;;5269522;28;20450;-81
2023/08/10 01:09:39;;;;;;;;;;;22.10;99.90;;;;;;5269865;28;20024;-77
2023/08/10 01:12:27;;;;;;;7.95;3.97;;;22.20;99.90;;;;;;5268246;28;20347;-76
2023/08/10 01:15:24;;;;;;;4.50;4.18;;;22.00;99.90;;;;;;5269582;28;20024;-76
2023/08/10 01:17:58;;;;;;;4.05;3.75;;;22.00;99.90;;;;;;5269308;28;20043;-89
2023/08/10 01:20:30;;;;;;;6.75;5.13;;;21.80;99.90;;;;;;5269414;28;20435;-76
2023/08/10 01:23:21;;;;;;;6.28;4.72;;;21.90;99.90;;;;;;5268876;28;20123;-87
2023/08/10 01:25:53;;;;;;;7.57;5.13;;;21.90;99.90;;;;;;5269439;28;20032;-85
2023/08/10 01:28:25;;;;;;;5.70;5.25;;;22.00;99.90;;;;;;5269198;28;20494;-76
2023/08/10 01:30:57;;;;;;;5.28;4.47;;;22.00;99.90;;;;;;5269407;28;20025;-88
2023/08/10 01:33:29;;;;;;;5.70;4.38;;;21.80;99.90;;;;;;5268872;28;20028;-79
2023/08/10 01:36:01;;;;;;;4.68;4.15;;;21.80;99.90;;;;;;5267687;28;20051;-76
2023/08/10 01:38:31;;;;;;;190.93;22.13;;;21.80;99.90;;;;;;5267650;28;20024;-82
2023/08/10 01:41:02;;;;;;;1563.28;149.27;;;21.80;99.90;;;;;;5269281;28;20028;-76
2023/08/10 01:43:33;;;;;;;86.05;13.75;;;21.80;99.90;;;;;;5269271;28;20375;-86
2023/08/10 01:46:06;;;;;;;252.35;38.50;;;21.70;99.90;;;;;;5268759;28;20051;-76
2023/08/10 01:48:40;;;;;;;723.53;321.88;;;21.80;99.90;;;;;;5269172;28;20040;-75
2023/08/10 01:51:14;;;;;;;23.70;7.40;;;21.80;99.90;;;;;;5269376;28;20035;-78
2023/08/10 01:53:47;;;;;;;5.90;5.40;;;21.80;99.90;;;;;;5268825;28;20043;-86
2023/08/10 01:56:19;;;;;;;23.80;6.85;;;21.80;99.90;;;;;;5268821;28;20107;-76
2023/08/10 01:58:50;;;;;;;5.60;5.20;;;21.80;99.90;;;;;;5269132;28;20047;-78
2023/08/10 02:01:21;;;;;;;6.20;5.70;;;21.70;99.90;;;;;;5269269;28;20024;-75
2023/08/10 02:03:52;;;;;;;155.90;89.25;;;21.80;99.90;;;;;;5268916;28;20024;-76
2023/08/10 02:06:22;;;;;;;5.97;5.55;;;21.70;99.90;;;;;;5268842;28;20031;-76
2023/08/10 02:08:53;;;;;;;5.63;5.13;;;21.70;99.90;;;;;;5268907;28;20035;-76
2023/08/10 02:11:24;;;;;;;7.13;5.07;;;21.60;99.90;;;;;;5267566;28;20406;-85
2023/08/10 02:13:55;;;;;;;6.53;5.93;;;21.60;99.90;;;;;;5267455;28;20491;-76
2023/08/10 02:16:26;;;;;;;7.15;6.55;;;21.60;99.90;;;;;;5268549;28;20558;-86
2023/08/10 02:18:57;;;;;;;7.63;7.13;;;21.50;99.90;;;;;;5268769;28;20028;-76
2023/08/10 02:21:28;;;;;;;7.50;6.78;;;21.40;99.90;;;;;;5268758;28;20361;-82
2023/08/10 02:24:05;;;;;;;7.32;6.93;;;21.60;99.90;;;;;;5268711;28;20376;-87
2023/08/10 02:26:39;;;;;;;7.72;6.65;;;21.40;99.90;;;;;;5268976;28;20024;-88
2023/08/10 02:29:16;;;;;;;5.70;5.20;;;21.30;99.90;;;;;;5267410;28;20111;-88
2023/08/10 02:31:50;;;;;;;5.57;5.25;;;21.20;99.90;;;;;;5268596;28;20067;-87
2023/08/10 02:34:21;;;;;;;5.07;4.68;;;21.20;99.90;;;;;;5267252;28;20451;-87
2023/08/10 02:36:52;;;;;;;4.40;4.00;;;21.20;99.90;;;;;;5270532;28;20063;-79
2023/08/10 02:39:23;;;;;;;6.50;4.80;;;21.10;99.90;;;;;;5272513;28;20027;-75
2023/08/10 02:41:54;;;;;;;7.63;6.95;;;21.00;99.90;;;;;;5272326;28;20036;-76
2023/08/10 02:44:25;;;;;;;7.50;6.82;;;20.90;99.90;;;;;;5272281;28;20024;-75
2023/08/10 02:46:56;;;;;;;8.20;7.53;;;20.90;99.90;;;;;;5271946;28;20152;-77
2023/08/10 02:49:26;;;;;;;9.05;8.25;;;21.00;99.90;;;;;;5271080;28;20032;-76
2023/08/10 02:51:57;;;;;;;7.78;6.97;;;20.90;99.90;;;;;;5272357;28;20038;-85
2023/08/10 02:54:28;;;;;;;6.68;6.18;;;21.00;99.90;;;;;;5272195;28;20024;-76
2023/08/10 02:56:59;;;;;;;6.65;6.25;;;20.90;99.90;;;;;;5270641;28;20036;-85
2023/08/10 02:59:30;;;;;;;6.45;6.05;;;20.90;99.90;;;;;;5272136;28;20028;-76
2023/08/10 03:02:02;;;;;;;6.05;5.55;;;21.00;99.90;;;;;;5271924;28;20043;-77
2023/08/10 03:04:33;;;;;;;7.05;5.97;;;21.00;99.90;;;;;;5270576;28;20026;-76
2023/08/10 03:07:04;;;;;;;6.28;5.68;;;21.00;99.90;;;;;;5271924;28;20035;-76
2023/08/10 03:09:37;;;;;;;7.05;4.95;;;20.90;99.90;;;;;;5272125;28;20024;-76
2023/08/10 03:12:09;;;;;;;6.40;5.85;;;20.90;99.90;;;;;;5272233;28;20030;-86
2023/08/10 03:14:40;;;;;;;5.97;5.57;;;20.90;99.90;;;;;;5271952;28;20023;-87
2023/08/10 03:17:10;;;;;;;5.22;4.72;;;21.00;99.90;;;;;;5271412;28;20472;-76
2023/08/10 03:19:42;;;;;;;7.70;7.18;;;21.00;99.90;;;;;;5271740;28;20055;-87
2023/08/10 03:22:13;;;;;;;9.48;8.57;;;21.10;99.90;;;;;;5271436;28;20074;-82
2023/08/10 03:24:44;;;;;;;8.40;7.88;;;21.00;99.90;;;;;;5271471;28;20020;-86
2023/08/10 03:27:15;;;;;;;9.10;8.40;;;20.90;99.90;;;;;;5271894;28;20047;-75
2023/08/10 03:29:45;;;;;;;6.95;6.55;;;21.00;99.90;;;;;;5271665;28;20395;-76
2023/08/10 03:32:16;;;;;;;6.70;6.20;;;20.90;99.90;;;;;;5271384;28;20027;-86
2023/08/10 03:34:47;;;;;;;5.97;5.38;;;20.80;99.90;;;;;;5271351;28;20115;-79
2023/08/10 03:37:18;;;;;;;6.15;5.75;;;20.90;99.90;;;;;;5271395;28;20071;-76
2023/08/10 03:39:49;;;;;;;7.40;6.90;;;20.70;99.90;;;;;;5269807;28;20521;-76
2023/08/10 03:42:20;;;;;;;9.85;9.13;;;20.70;99.90;;;;;;5269614;28;20024;-81
2023/08/10 03:44:54;;;;;;;10.55;9.85;;;20.80;99.90;;;;;;5270770;28;20720;-81
2023/08/10 03:47:26;;;;;;;11.32;10.60;;;20.80;99.90;;;;;;5268010;28;20750;-76
2023/08/10 03:49:57;;;;;;;11.77;10.77;;;20.80;99.90;;;;;;5271076;28;20028;-76
2023/08/10 03:52:27;;;;;;;23.52;12.07;;;20.80;99.90;;;;;;5270853;28;20024;-76
2023/08/10 03:54:58;;;;;;;16.30;10.77;;;21.00;99.90;;;;;;5270836;28;20511;-79
2023/08/10 03:57:29;;;;;;;11.70;10.68;;;20.90;99.90;;;;;;5270516;28;20036;-75
2023/08/10 04:00:00;;;;;;;12.68;10.65;;;21.00;99.90;;;;;;5270785;28;20024;-76
2023/08/10 04:02:31;;;;;;;12.93;11.77;;;21.00;99.90;;;;;;5270763;28;20028;-75
2023/08/10 04:05:06;;;;;;;12.07;10.90;;;21.20;99.90;;;;;;5270828;28;20027;-76
2023/08/10 04:07:37;;;;;;;10.95;10.18;;;21.20;99.90;;;;;;5270905;28;20109;-76
2023/08/10 04:10:11;;;;;;;9.27;8.63;;;21.30;99.90;;;;;;5270819;28;20020;-87
2023/08/10 04:12:42;;;;;;;6.50;5.85;;;21.40;99.90;;;;;;5270719;28;20028;-75
2023/08/10 04:15:13;;;;;;;6.50;5.97;;;21.50;99.90;;;;;;5269149;28;20483;-76
2023/08/10 04:17:44;;;;;;;6.45;5.88;;;21.50;99.90;;;;;;5269164;28;20043;-87
2023/08/10 04:20:15;;;;;;;6.47;6.07;;;21.50;99.90;;;;;;5270541;28;20020;-75
2023/08/10 04:22:46;;;;;;;5.93;5.47;;;21.60;99.90;;;;;;5270417;28;20035;-76
2023/08/10 04:25:17;;;;;;;6.55;5.43;;;21.80;99.90;;;;;;5270267;28;20107;-76
2023/08/10 04:27:48;;;;;;;5.95;5.45;;;21.90;99.90;;;;;;5270270;28;20090;-77
2023/08/10 04:30:19;;;;;;;5.38;4.97;;;22.00;99.90;;;;;;5270402;28;20024;-79
2023/08/10 04:32:51;;;;;;;5.47;5.07;;;22.00;99.90;;;;;;5250322;28;20380;-75
2023/08/10 04:35:22;;;;;;;6.18;5.68;;;22.10;99.90;;;;;;5249268;28;20034;-75
2023/08/10 04:37:53;;;;;;;5.68;5.22;;;22.10;99.90;;;;;;5248794;28;20392;-75
2023/08/10 04:40:24;;;;;;;9.27;5.38;;;22.10;99.90;;;;;;5248855;28;20024;-76
2023/08/10 04:42:56;;;;;;;5.45;5.03;;;22.20;99.90;;;;;;5248904;28;20091;-76
2023/08/10 04:45:27;;;;;;;6.07;5.40;;;22.20;99.90;;;;;;5248779;28;20028;-76
2023/08/10 04:47:58;;;;;;;5.88;5.47;;;22.20;99.90;;;;;;5248773;28;20118;-76
2023/08/10 04:50:29;;;;;;;5.70;5.20;;;22.30;99.90;;;;;;5248916;28;20028;-76
2023/08/10 04:53:00;;;;;;;5.90;5.25;;;22.40;99.90;;;;;;5248656;28;20020;-75
2023/08/10 04:55:30;;;;;;;5.72;5.32;;;22.40;99.90;;;;;;5248726;28;20038;-76
2023/08/10 04:58:01;;;;;;;5.43;4.93;;;22.60;99.90;;;;;;5248155;28;20086;-75
2023/08/10 05:00:32;;;;;;;5.10;4.70;;;22.50;99.90;;;;;;5248736;28;20540;-76
2023/08/10 05:03:04;;;;;;;6.47;5.53;;;22.70;99.90;;;;;;5248711;28;20058;-77
2023/08/10 05:05:37;;;;;;;5.78;5.03;;;22.70;99.90;;;;;;5248841;28;20016;-75
2023/08/10 05:08:08;;;;;;;9.68;4.40;;;22.70;99.90;;;;;;5248684;28;20032;-76
2023/08/10 05:10:43;;;;;;;5.85;5.03;;;22.90;99.90;;;;;;5248628;28;20480;-85
2023/08/10 05:13:14;;;;;;;4.93;4.50;;;23.00;99.90;;;;;;5248501;28;20020;-76
2023/08/10 05:15:45;;;;;;;5.03;4.65;;;23.00;99.90;;;;;;5248382;28;20036;-77
2023/08/10 05:18:18;;;;;;;7.22;3.97;;;23.00;99.90;;;;;;5248928;28;20064;-77
2023/08/10 05:20:49;;;;;;;4.40;3.92;;;23.20;99.90;;;;;;5248384;28;20021;-76
2023/08/10 05:23:20;;;;;;;4.13;3.83;;;23.10;99.90;;;;;;5248478;28;20031;-88
2023/08/10 05:25:51;;;;;;;4.15;3.75;;;23.30;99.90;;;;;;5248461;28;20462;-80
2023/08/10 05:28:23;;;;;;;4.22;3.17;;;23.40;99.90;;;;;;5248644;28;20122;-75
2023/08/10 05:30:54;;;;;;;3.38;3.08;;;23.50;99.90;;;;;;5247018;28;20024;-76
2023/08/10 05:33:25;;;;;;;5.28;3.00;;;23.70;99.90;;;;;;5248224;28;20021;-80
2023/08/10 05:35:57;;;;;;;3.65;3.35;;;23.70;99.90;;;;;;5248224;28;20017;-76
2023/08/10 05:38:28;;;;;;;3.67;3.38;;;23.80;99.90;;;;;;5248606;28;20032;-76
2023/08/10 05:40:59;;;;;;;4.07;3.78;;;23.80;99.90;;;;;;5248383;28;20042;-76
2023/08/10 05:43:30;;;;;;;4.13;3.83;;;23.80;99.90;;;;;;5248563;28;20054;-76
2023/08/10 05:46:01;;;;;;;4.22;3.63;;;23.80;99.90;;;;;;5248074;28;20140;-76
2023/08/10 05:48:32;;;;;;;5.18;4.10;;;23.90;99.90;;;;;;5248330;28;20880;-75
2023/08/10 05:51:03;;;;;;;4.53;3.50;;;24.20;99.90;;;;;;5248293;28;20484;-79
2023/08/10 05:53:33;;;;;;;4.78;4.38;;;24.20;99.90;;;;;;5248153;28;20028;-75
2023/08/10 05:56:04;;;;;;;5.32;4.05;;;24.30;99.90;;;;;;5248061;28;20131;-80
2023/08/10 05:58:36;;;;;;;6.50;4.47;;;24.20;99.90;;;;;;5247551;28;20085;-76
2023/08/10 06:01:06;;;;;;;5.45;4.47;;;24.20;99.90;;;;;;5247011;28;20035;-77
2023/08/10 06:03:37;;;;;;;8.25;5.20;;;24.40;99.90;;;;;;5246955;28;20032;-78
2023/08/10 06:06:09;;;;;;;5.75;4.25;;;24.50;99.90;;;;;;5247032;28;20119;-76
2023/08/10 06:08:40;;;;;;;6.78;4.32;;;24.40;99.90;;;;;;5246369;28;20079;-74
2023/08/10 06:11:11;;;;;;;6.60;4.82;;;24.40;99.90;;;;;;5251132;28;20041;-74
2023/08/10 06:13:42;;;;;;;10.65;5.32;;;24.30;99.90;;;;;;5258530;28;20027;-76
2023/08/10 06:16:13;;;;;;;8.88;4.82;;;24.20;99.90;;;;;;5271856;28;20076;-73
2023/08/10 06:18:44;;;;;;;6.57;4.53;;;24.20;99.90;;;;;;5271701;28;20036;-74
2023/08/10 06:21:14;;;;;;;4.85;4.03;;;24.20;99.90;;;;;;5271674;28;20410;-73
2023/08/10 06:23:45;;;;;;;5.88;4.38;;;24.20;99.90;;;;;;5271565;28;20024;-74
2023/08/10 06:26:16;;;;;;;5.65;4.45;;;24.20;99.90;;;;;;5271660;28;20059;-80
2023/08/10 06:28:48;;;;;;;5.00;4.43;;;24.30;99.90;;;;;;5271618;28;20035;-73
2023/08/10 06:31:19;;;;;;;4.93;4.53;;;24.40;99.90;;;;;;5271609;28;20028;-77
2023/08/10 06:33:49;;;;;;;5.15;4.65;;;24.40;99.90;;;;;;5271140;28;20039;-74
2023/08/10 06:36:21;;;;;;;7.03;4.78;;;24.60;99.90;;;;;;5271317;28;20519;-73
2023/08/10 06:38:52;;;;;;;6.07;4.22;;;24.60;99.90;;;;;;5270730;28;20032;-74
2023/08/10 06:41:23;;;;;;;14.07;4.95;;;24.60;99.90;;;;;;5269536;28;20020;-74
2023/08/10 06:43:54;;;;;;;4.95;4.43;;;24.40;99.90;;;;;;5269431;28;20102;-74
2023/08/10 06:46:25;;;;;;;5.72;5.15;;;24.40;99.90;;;;;;5269209;28;20043;-75
2023/08/10 06:48:57;;;;;;;5.72;5.18;;;24.30;99.90;;;;;;5270003;28;20020;-74
2023/08/10 06:51:28;;;;;;;6.05;5.32;;;24.40;99.90;;;;;;5269667;28;20028;-80
2023/08/10 06:53:58;;;;;;;6.45;4.72;;;24.50;99.90;;;;;;5269811;28;20032;-80
2023/08/10 06:56:29;;;;;;;6.13;4.68;;;24.50;99.90;;;;;;5270165;28;20036;-80
2023/08/10 06:59:00;;;;;;;5.63;3.90;;;24.30;99.90;;;;;;5270720;28;20475;-74
2023/08/10 07:01:31;;;;;;;5.00;4.53;;;;;;;;;;5270521;28;20032;-74
2023/08/10 07:04:02;;;;;;;8.13;4.57;;;;;;;;;;5270709;28;20028;-76
2023/08/10 07:06:34;;;;;;;7.88;4.88;;;;;;;;;;5270620;28;20066;-74
2023/08/10 07:09:05;;;;;;;6.30;5.03;;;;;;;;;;5270663;28;20115;-73
2023/08/10 07:11:36;;;;;;;5.93;4.80;;;24.60;99.90;;;;;;5270433;28;20038;-73
2023/08/10 07:14:06;;;;;;;5.15;4.75;;;24.50;99.90;;;;;;5270769;28;20028;-73
2023/08/10 07:16:37;;;;;;;5.75;5.30;;;24.60;99.90;;;;;;5270358;28;20038;-73
2023/08/10 07:19:08;;;;;;;7.80;6.00;;;24.60;99.90;;;;;;5270795;28;20494;-73
2023/08/10 07:21:39;;;;;;;8.63;6.43;;;;;;;;;;5269847;28;20020;-73
2023/08/10 07:24:10;;;;;;;6.57;5.43;;;;;;;;;;5270744;28;20024;-73
2023/08/10 07:26:41;;;;;;;6.25;5.72;;;24.90;99.90;;;;;;5270579;28;20020;-73
2023/08/10 07:29:12;;;;;;;5.88;5.38;;;24.70;99.90;;;;;;5270421;28;20023;-76
2023/08/10 07:31:43;;;;;;;5.65;5.15;;;24.80;99.90;;;;;;5270266;28;20085;-74
2023/08/10 07:34:14;;;;;;;6.10;5.60;;;25.00;99.90;;;;;;5269602;28;20035;-73
2023/08/10 07:36:45;;;;;;;6.95;5.72;;;25.00;99.90;;;;;;5269848;28;20028;-79
2023/08/10 07:39:16;;;;;;;8.18;5.55;;;25.20;99.90;;;;;;5268956;28;20077;-73
2023/08/10 07:41:46;;;;;;;6.05;5.45;;;25.00;99.90;;;;;;5268657;28;20048;-73
2023/08/10 07:44:17;;;;;;;10.35;5.50;;;25.00;99.90;;;;;;5268812;28;20062;-78
2023/08/10 07:46:48;;;;;;;6.90;6.30;;;25.20;99.90;;;;;;5268624;28;20044;-78
2023/08/10 07:49:20;;;;;;;5.90;5.30;;;;;;;;;;5268578;28;20028;-78
2023/08/10 07:51:50;;;;;;;7.05;6.28;;;25.30;99.90;;;;;;5268924;28;20660;-73
2023/08/10 07:54:22;;;;;;;7.88;5.95;;;;;;;;;;5269802;28;20016;-72
2023/08/10 07:56:52;;;;;;;5.70;5.10;;;25.30;99.90;;;;;;5269744;28;20498;-78
2023/08/10 07:59:23;;;;;;;5.70;5.25;;;25.30;99.90;;;;;;5269924;28;20020;-73
2023/08/10 08:01:54;;;;;;;7.20;6.50;;;25.30;99.90;;;;;;5269829;28;20035;-79
2023/08/10 08:04:25;;;;;;;8.23;6.05;;;25.50;99.90;;;;;;5269576;28;20646;-73
2023/08/10 08:06:56;;;;;;;7.00;5.57;;;25.40;99.90;;;;;;5273317;28;20546;-73
2023/08/10 08:09:27;;;;;;;9.13;6.18;;;25.40;99.90;;;;;;5290339;28;20055;-72
2023/08/10 08:11:58;;;;;;;7.10;6.05;;;25.50;99.90;;;;;;5282651;28;20032;-74
2023/08/10 08:14:29;;;;;;;8.75;8.05;;;25.50;99.90;;;;;;5268401;28;20016;-74
2023/08/10 08:16:59;;;;;;;9.02;7.53;;;25.80;99.90;;;;;;5268603;28;20040;-80
2023/08/10 08:19:32;;;;;;;9.38;8.48;;;25.90;99.90;;;;;;5268144;28;20028;-74
2023/08/10 08:22:03;;;;;;;10.75;7.55;;;25.80;99.90;;;;;;5268000;28;20115;-75
2023/08/10 08:24:34;;;;;;;8.25;7.43;;;25.80;99.90;;;;;;5268202;28;20024;-73
2023/08/10 08:27:05;;;;;;;8.30;7.60;;;;;;;;;;5268594;28;20468;-74
2023/08/10 08:29:36;;;;;;;8.13;6.82;;;25.60;99.90;;;;;;5267892;28;20411;-75
2023/08/10 08:32:07;;;;;;;8.23;7.43;;;;;;;;;;5268489;28;20028;-74
2023/08/10 08:34:38;;;;;;;7.47;6.63;;;25.60;99.90;;;;;;5268972;28;20028;-74
2023/08/10 08:37:09;;;;;;;8.82;8.02;;;;;;;;;;5269574;28;20032;-80
2023/08/10 08:39:41;;;;;;;8.68;7.93;;;;;;;;;;5269318;28;20056;-79
2023/08/10 08:42:12;;;;;;;8.65;7.65;;;;;;;;;;5268410;28;20035;-76
2023/08/10 08:44:43;;;;;;;8.57;7.78;;;;;;;;;;5268991;28;20073;-74
2023/08/10 08:47:14;;;;;;;9.48;8.68;;;;;;;;;;5268580;28;20044;-73
2023/08/10 08:49:46;;;;;;;10.13;8.68;;;;;;;;;;5269212;28;20460;-74
2023/08/10 08:52:17;;;;;;;10.10;9.27;;;;;;;;;;5269179;28;20089;-74
2023/08/10 08:54:48;;;;;;;9.43;8.40;;;;;;;;;;5269069;28;20028;-74
2023/08/10 08:57:20;;;;;;;9.30;8.60;;;;;;;;;;5268782;28;20038;-74
2023/08/10 08:59:51;;;;;;;8.93;8.23;;;;;;;;;;5269146;28;20487;-75
2023/08/10 09:02:22;;;;;;;8.88;7.97;;;;;;;;;;5268938;28;20032;-73
2023/08/10 09:04:59;;;;;;;10.70;9.75;;;;;;;;;;5269060;28;20443;-76
2023/08/10 09:07:31;;;;;;;9.73;8.75;;;;;;;;;;5268249;28;20088;-74
2023/08/10 09:10:03;;;;;;;7.97;7.25;;;;;;;;;;5268713;28;20072;-75
2023/08/10 09:12:37;;;;;;;7.90;7.00;;;;;;;;;;5267930;28;20035;-73
2023/08/10 09:15:12;;;;;;;9.18;7.38;;;;;;;;;;5267727;28;20032;-74
2023/08/10 09:17:44;;;;;;;8.27;7.15;;;26.10;99.90;;;;;;5267527;28;20040;-75
2023/08/10 09:20:20;;;;;;;8.90;6.70;;;26.10;99.90;;;;;;5267668;28;20016;-74
2023/08/10 09:22:57;;;;;;;7.60;6.90;;;26.10;99.90;;;;;;5267776;28;20043;-75
2023/08/10 09:25:38;;;;;;;8.48;7.72;;;26.10;99.90;;;;;;5268080;28;20024;-73
2023/08/10 09:28:12;;;;;;;9.18;7.05;;;26.00;99.90;;;;;;5268786;28;20024;-73
2023/08/10 09:30:43;;;;;;;7.32;6.38;;;25.90;99.90;;;;;;5268690;28;20024;-74
2023/08/10 09:33:31;;;;;;;9.23;8.30;;;25.70;99.90;;;;;;5268626;28;20073;-74
2023/08/10 09:36:04;;;;;;;9.10;8.30;;;25.80;99.90;;;;;;5268822;28;20028;-74
2023/08/10 09:38:35;;;;;;;8.90;8.20;;;25.70;99.90;;;;;;5268720;28;20103;-75
2023/08/10 09:41:13;;;;;;;8.65;7.85;;;25.80;99.90;;;;;;5268283;28;20028;-73
2023/08/10 09:43:44;;;;;;;9.50;8.70;;;25.90;99.90;;;;;;5268409;28;20025;-74
2023/08/10 09:46:16;;;;;;;10.15;9.23;;;26.10;99.90;;;;;;5272632;28;20127;-76
2023/08/10 09:48:52;;;;;;;11.43;8.75;;;26.00;99.90;;;;;;5272889;28;20089;-73
2023/08/10 09:51:23;;;;;;;11.32;9.02;;;26.00;99.90;;;;;;5272791;28;20115;-73
2023/08/10 09:53:54;;;;;;;13.13;10.88;;;25.80;99.90;;;;;;5272968;28;20095;-74
2023/08/10 09:56:25;;;;;;;10.30;9.45;;;25.80;99.90;;;;;;5272599;28;20040;-74
2023/08/10 09:58:56;;;;;;;9.38;8.48;;;25.80;99.90;;;;;;5271743;28;20085;-73
2023/08/10 10:01:27;;;;;;;13.80;9.05;;;25.60;99.90;;;;;;5272290;28;20039;-81
2023/08/10 10:03:58;;;;;;;11.48;10.05;;;25.70;99.90;;;;;;5272127;28;20020;-74
2023/08/10 10:06:29;;;;;;;9.82;9.02;;;25.90;99.90;;;;;;5272307;28;20417;-75
2023/08/10 10:09:03;;;;;;;10.10;9.23;;;25.80;99.90;;;;;;5271550;28;20066;-80
2023/08/10 10:11:34;;;;;;;11.90;10.30;;;25.80;99.90;;;;;;5271754;28;20055;-80
2023/08/10 10:14:06;;;;;;;10.82;9.95;;;26.10;99.90;;;;;;5271831;28;20028;-74
2023/08/10 10:16:37;;;;;;;10.20;9.18;;;26.20;99.90;;;;;;5269812;28;20028;-74
2023/08/10 10:19:08;;;;;;;11.32;9.82;;;26.10;99.90;;;;;;5271682;28;20032;-74
2023/08/10 10:21:40;;;;;;;11.93;10.90;;;26.20;99.90;;;;;;5272232;28;20027;-73
2023/08/10 10:24:13;;;;;;;11.20;10.27;;;26.20;99.90;;;;;;5272298;28;20077;-73
2023/08/10 10:27:10;;;;;;;9.27;8.43;;;26.20;99.90;;;;;;5272253;28;20494;-74
2023/08/10 10:29:56;;;;;;;9.65;8.85;;;26.20;99.90;;;;;;5271959;28;20021;-73
2023/08/10 10:32:27;;;;;;;10.52;9.65;;;26.10;99.90;;;;;;5271997;28;20030;-74
2023/08/10 10:34:59;;;;;;;10.00;9.20;;;26.30;99.90;;;;;;5272087;28;20063;-74
2023/08/10 10:37:32;;;;;;;10.55;9.25;;;26.20;99.90;;;;;;5271948;28;20036;-74
2023/08/10 10:40:18;;;;;;;10.05;8.95;;;26.20;99.90;;;;;;5271652;28;20442;-74
2023/08/10 10:43:01;;;;;;;10.60;9.48;;;26.20;99.90;;;;;;5271945;28;20455;-73
2023/08/10 10:45:40;;;;;;;12.13;9.93;;;26.30;99.90;;;;;;5271776;28;20035;-77
2023/08/10 10:48:13;;;;;;;9.70;8.88;;;26.40;99.90;;;;;;5271693;28;20051;-73
2023/08/10 10:50:43;;;;;;;8.50;7.80;;;26.30;99.90;;;;;;5271774;28;20024;-74
2023/08/10 10:53:16;;;;;;;10.32;8.57;;;26.40;99.90;;;;;;5271779;28;20028;-73
2023/08/10 10:55:48;;;;;;;9.25;8.35;;;26.50;99.90;;;;;;5270456;28;20043;-74
2023/08/10 10:58:19;;;;;;;7.95;7.20;;;26.40;99.90;;;;;;5271334;28;20391;-74
2023/08/10 11:00:51;;;;;;;8.85;7.95;;;26.90;99.90;;;;;;5271349;28;20024;-74
2023/08/10 11:03:23;;;;;;;8.60;7.40;;;26.90;99.90;;;;;;5270646;28;20036;-75
2023/08/10 11:05:54;;;;;;;7.35;6.60;;;26.90;99.90;;;;;;5270553;28;20016;-74
2023/08/10 11:08:25;;;;;;;8.90;6.43;;;26.80;99.90;;;;;;5270637;28;20419;-74
2023/08/10 11:10:57;;;;;;;8.20;7.03;;;27.00;99.90;;;;;;5270571;28;20414;-74
2023/08/10 11:13:28;;;;;;;6.82;5.93;;;27.00;99.90;;;;;;5270499;28;20579;-73
2023/08/10 11:16:00;;;;;;;11.32;6.25;;;26.80;99.90;;;;;;5268953;28;20024;-73
2023/08/10 11:18:31;;;;;;;7.80;5.72;;;26.80;99.90;;;;;;5271339;28;20032;-74
2023/08/10 11:21:06;;;;;;;7.70;5.85;;;26.80;99.90;;;;;;5271224;28;20027;-74
2023/08/10 11:23:39;;;;;;;8.65;6.32;;;26.80;99.90;;;;;;5270067;28;20387;-74
2023/08/10 11:26:11;;;;;;;8.93;5.85;;;26.70;99.90;;;;;;5269992;28;20020;-74
2023/08/10 11:28:42;;;;;;;8.63;6.70;;;26.80;99.90;;;;;;5271093;28;20030;-74
2023/08/10 11:31:14;;;;;;;10.32;6.07;;;26.90;99.90;;;;;;5270913;28;20024;-74
2023/08/10 11:33:45;;;;;;;7.80;6.55;;;26.80;99.90;;;;;;5270971;28;20028;-74
2023/08/10 11:36:16;;;;;;;9.75;8.05;;;26.80;99.90;;;;;;5270816;28;20544;-80
2023/08/10 11:38:49;;;;;;;8.25;6.60;;;26.70;99.90;;;;;;5269506;28;20372;-74
2023/08/10 11:41:20;;;;;;;7.70;6.38;;;26.80;99.90;;;;;;5270756;28;20028;-74
2023/08/10 11:43:51;;;;;;;6.82;5.65;;;26.90;99.90;;;;;;5270676;28;20103;-74
2023/08/10 11:46:24;;;;;;;9.52;5.82;;;26.90;99.90;;;;;;5270167;28;20075;-79
2023/08/10 11:48:55;;;;;;;9.70;5.97;;;26.80;99.90;;;;;;5272014;28;20081;-74
2023/08/10 11:51:33;;;;;;;6.97;6.38;;;26.60;99.90;;;;;;5270934;28;20028;-79
2023/08/10 11:54:10;;;;;;;10.63;6.18;;;26.60;99.90;;;;;;5270583;28;20474;-75
2023/08/10 11:56:45;;;;;;;12.88;7.03;;;26.60;99.90;;;;;;5265855;28;20032;-79
2023/08/10 11:59:16;;;;;;;13.38;5.80;;;26.60;99.90;;;;;;5270168;28;20020;-77
2023/08/10 12:01:54;;;;;;;15.52;6.38;;;26.70;99.90;;;;;;5270314;28;20027;-77
2023/08/10 12:04:30;;;;;;;7.57;6.53;;;26.50;99.90;;;;;;5270440;28;20127;-79
2023/08/10 12:07:01;;;;;;;12.80;7.47;;;26.60;99.90;;;;;;5269878;28;20032;-77
2023/08/10 12:09:32;;;;;;;9.15;7.32;;;26.50;99.90;;;;;;5269977;28;20073;-77
2023/08/10 12:12:07;;;;;;;9.63;6.50;;;26.60;99.90;;;;;;5270313;28;20031;-78
2023/08/10 12:14:38;;;;;;;9.68;6.70;;;26.60;99.90;;;;;;5269967;28;20020;-79
2023/08/10 12:17:10;;;;;;;11.40;9.13;;;26.80;99.90;;;;;;5270094;28;20050;-76
2023/08/10 12:19:40;;;;;;;11.15;7.68;;;26.80;99.90;;;;;;5270178;28;20834;-78
2023/08/10 12:22:11;;;;;;;6.75;6.15;;;26.70;99.90;;;;;;5268694;28;20099;-78
2023/08/10 12:24:42;;;;;;;8.77;7.80;;;26.70;99.90;;;;;;5270267;28;20028;-77
2023/08/10 12:27:15;;;;;;;8.70;7.80;;;26.60;99.90;;;;;;5270363;28;20024;-79
2023/08/10 12:29:46;;;;;;;10.30;7.25;;;26.60;99.90;;;;;;5270232;28;20028;-76
2023/08/10 12:32:17;;;;;;;11.85;7.53;;;26.50;99.90;;;;;;5270093;28;20024;-76
2023/08/10 12:34:47;;;;;;;9.02;6.80;;;26.40;99.90;;;;;;5269917;28;20020;-78
2023/08/10 12:37:18;;;;;;;12.13;8.45;;;26.30;99.90;;;;;;5268701;28;20035;-79
2023/08/10 12:39:49;;;;;;;11.23;8.57;;;26.30;99.90;;;;;;5268340;28;20020;-78
2023/08/10 12:42:21;;;;;;;11.25;9.38;;;26.30;99.90;;;;;;5268558;28;20035;-79
2023/08/10 12:44:52;;;;;;;12.48;8.93;;;26.40;99.90;;;;;;5269891;28;20024;-76
2023/08/10 12:47:23;;;;;;;13.10;10.48;;;26.40;99.90;;;;;;5269732;28;20071;-76
2023/08/10 12:49:54;;;;;;;12.75;8.73;;;26.50;99.90;;;;;;5269949;28;20467;-77
2023/08/10 12:52:25;;;;;;;10.30;8.73;;;26.40;99.90;;;;;;5269497;28;20035;-76
2023/08/10 12:54:56;;;;;;;11.00;8.50;;;26.40;99.90;;;;;;5269637;28;20016;-76
2023/08/10 12:57:28;;;;;;;12.95;7.78;;;26.40;99.90;;;;;;5269439;28;20562;-77
2023/08/10 13:00:01;;;;;;;12.75;8.15;;;26.50;99.90;;;;;;5269426;28;20081;-77
2023/08/10 13:02:32;;;;;;;11.80;8.57;;;26.40;99.90;;;;;;5247778;28;20124;-76
2023/08/10 13:05:04;;;;;;;13.45;8.00;;;26.40;99.90;;;;;;5247513;28;20107;-76
2023/08/10 13:07:36;;;;;;;12.55;8.00;;;26.40;99.90;;;;;;5247411;28;20384;-75
2023/08/10 13:10:08;;;;;;;13.05;9.02;;;26.40;99.90;;;;;;5247440;28;20017;-76
2023/08/10 13:12:41;;;;;;;13.93;8.52;;;26.50;99.90;;;;;;5248220;28;20519;-76
2023/08/10 13:15:12;;;;;;;11.95;8.10;;;26.50;99.90;;;;;;5247835;28;20031;-76
2023/08/10 13:17:42;;;;;;;11.50;8.30;;;26.40;99.90;;;;;;5247862;28;20049;-75